Time;durP1;ratioP1;P1;durP2;ratioP2;P2;SDS_P1;SDS_P2;PMS_P1;PMS_P2;Temp;Humidity;BMP_temperature;BMP_pressure;BME280_temperature;BME280_humidity;BME280_pressure;Samples;Min_cycle;Max_cycle;Signal;HPM_P1;HPM_P2
2022/09/30 00:00:42;;;;;;;;;;;8.20;99.90;;;;;;5104599;27;20367;-56
2022/09/30 00:03:22;;;;;;;;;;;8.20;99.90;;;;;;5105089;27;20370;-56
2022/09/30 00:06:04;;;;;;;;;;;8.20;99.90;;;;;;5105321;27;19920;-56
2022/09/30 00:08:44;;;;;;;;;;;8.20;99.90;;;;;;5125274;27;19911;-57
2022/09/30 00:11:25;;;;;;;;;;;8.20;99.90;;;;;;5105208;27;19912;-57
2022/09/30 00:14:06;;;;;;;;;;;8.20;99.90;;;;;;5084605;28;20316;-57
2022/09/30 00:16:48;;;;;;;;;;;8.10;99.90;;;;;;5125344;27;19912;-56
2022/09/30 00:19:28;;;;;;;;;;;8.10;99.90;;;;;;5104131;27;20271;-56
2022/09/30 00:22:08;;;;;;;;;;;8.10;99.90;;;;;;5105122;27;19916;-56
2022/09/30 00:24:49;;;;;;;;;;;8.10;99.90;;;;;;5112544;27;19912;-56
2022/09/30 00:27:29;;;;;;;;;;;8.20;99.90;;;;;;5105250;27;19930;-56
2022/09/30 00:30:10;;;;;;;;;;;8.20;99.90;;;;;;5104660;27;19926;-57
2022/09/30 00:32:50;;;;;;;;;;;8.20;99.90;;;;;;5146515;27;19915;-56
2022/09/30 00:35:30;;;;;;;;;;;8.10;99.90;;;;;;5125277;27;20319;-56
2022/09/30 00:38:10;;;;;;;;;;;8.20;99.90;;;;;;5161220;27;19911;-56
2022/09/30 00:40:50;;;;;;;;;;;8.20;99.90;;;;;;5158211;27;19915;-56
2022/09/30 00:43:41;;;;;;;;;;;8.10;99.90;;;;;;5125761;27;19912;-56
2022/09/30 00:46:27;;;;;;;;;;;8.10;99.90;;;;;;5125455;27;19912;-56
2022/09/30 00:49:12;;;;;;;;;;;8.10;99.90;;;;;;5123589;27;20391;-56
2022/09/30 00:51:53;;;;;;;;;;;8.10;99.90;;;;;;5105386;27;19913;-56
2022/09/30 00:54:34;;;;;;;;;;;8.10;99.90;;;;;;5125463;27;19911;-56
2022/09/30 00:57:15;;;;;;;;;;;8.10;99.90;;;;;;5104698;27;19926;-56
2022/09/30 00:59:54;;;;;;;;;;;8.00;99.90;;;;;;5104489;27;19953;-56
2022/09/30 01:02:35;;;;;;;;;;;8.10;99.90;;;;;;5125564;27;19912;-56
2022/09/30 01:05:16;;;;;;;;;;;8.10;99.90;;;;;;5124959;27;20259;-56
2022/09/30 01:07:57;;;;;;;;;;;8.10;99.90;;;;;;5159428;27;19911;-56
2022/09/30 01:10:37;;;;;;;;;;;8.10;99.90;;;;;;5111823;27;20377;-56
2022/09/30 01:13:18;;;;;;;;;;;8.10;99.90;;;;;;5125337;27;19930;-56
2022/09/30 01:16:13;;;;;;;;;;;8.10;99.90;;;;;;5125180;27;19916;-56
2022/09/30 01:18:58;;;;;;;;;;;8.10;99.90;;;;;;5125166;27;19912;-57
2022/09/30 01:21:56;;;;;;;;;;;8.10;99.90;;;;;;5098919;27;19926;-56
2022/09/30 01:24:57;;;;;;;;;;;8.10;99.90;;;;;;5104505;27;19912;-57
2022/09/30 01:27:51;;;;;;;;;;;8.20;99.90;;;;;;5124895;27;19916;-56
2022/09/30 01:30:43;;;;;;;;;;;8.20;99.90;;;;;;5124861;27;20328;-57
2022/09/30 01:33:32;;;;;;;;;;;8.30;99.90;;;;;;5103688;27;19912;-56
2022/09/30 01:36:25;;;;;;;;;;;8.20;99.90;;;;;;5125403;27;19912;-56
2022/09/30 01:39:12;;;;;;;;;;;8.30;99.90;;;;;;5104270;27;19974;-56
2022/09/30 01:41:54;;;;;;;;;;;8.20;99.90;;;;;;5125529;27;19912;-57
2022/09/30 01:44:37;;;;;;;;;;;8.20;99.90;;;;;;5114447;27;19912;-56
2022/09/30 01:47:22;;;;;;;;;;;8.20;99.90;;;;;;5104711;27;19912;-56
2022/09/30 01:50:05;;;;;;;;;;;8.20;99.90;;;;;;5102598;27;19918;-56
2022/09/30 01:52:49;;;;;;;;;;;8.10;99.90;;;;;;5104506;27;19924;-56
2022/09/30 01:55:30;;;;;;;;;;;8.10;99.90;;;;;;5125155;27;20319;-57
2022/09/30 01:58:12;;;;;;;;;;;8.10;99.90;;;;;;5125229;27;20320;-56
2022/09/30 02:00:55;;;;;;;;;;;8.00;99.90;;;;;;5083778;28;20336;-56
2022/09/30 02:03:36;;;;;;;;;;;8.00;99.90;;;;;;5122177;27;19912;-56
2022/09/30 02:06:19;;;;;;;;;;;7.90;99.90;;;;;;5105127;27;20411;-56
2022/09/30 02:09:02;;;;;;;;;;;7.90;99.90;;;;;;5104174;27;20328;-57
2022/09/30 02:11:42;;;;;;;;;;;7.80;99.90;;;;;;5125057;27;20281;-57
2022/09/30 02:14:27;;;;;;;;;;;7.80;99.90;;;;;;5115938;27;19912;-56
2022/09/30 02:17:14;;;;;;;;;;;7.70;99.90;;;;;;5084479;28;19913;-56
2022/09/30 02:19:59;;;;;;;;;;;7.70;99.90;;;;;;5104502;27;19912;-57
2022/09/30 02:22:43;;;;;;;;;;;7.70;99.90;;;;;;5109263;27;19961;-57
2022/09/30 02:25:26;;;;;;;;;;;7.80;99.90;;;;;;5104871;27;20381;-56
2022/09/30 02:28:09;;;;;;;;;;;7.70;99.90;;;;;;5104708;27;20417;-55
2022/09/30 02:30:51;;;;;;;;;;;7.70;99.90;;;;;;5104690;27;20438;-56
2022/09/30 02:33:33;;;;;;;;;;;7.60;99.90;;;;;;5154940;27;19919;-56
2022/09/30 02:36:19;;;;;;;;;;;7.60;99.90;;;;;;5125524;27;19912;-56
2022/09/30 02:39:01;;;;;;;;;;;7.60;99.90;;;;;;5125187;27;19920;-55
2022/09/30 02:41:43;;;;;;;;;;;7.60;99.90;;;;;;5157167;27;19911;-56
2022/09/30 02:44:23;;;;;;;;;;;7.60;99.90;;;;;;5154895;27;19925;-55
2022/09/30 02:47:08;;;;;;;;;;;7.60;99.90;;;;;;5125692;27;19916;-56
2022/09/30 02:49:53;;;;;;;;;;;7.60;99.90;;;;;;5123338;27;19912;-56
2022/09/30 02:52:42;;;;;;;;;;;7.60;99.90;;;;;;5129583;27;19912;-56
2022/09/30 02:55:27;;;;;;;;;;;7.60;99.90;;;;;;5126362;27;19915;-56
2022/09/30 02:58:10;;;;;;;;;;;7.60;99.90;;;;;;5105117;27;19926;-57
2022/09/30 03:00:52;;;;;;;;;;;7.60;99.90;;;;;;5124239;27;19911;-56
2022/09/30 03:03:35;;;;;;;;;;;7.60;99.90;;;;;;5102590;27;19946;-56
2022/09/30 03:06:16;;;;;;;;;;;7.50;99.90;;;;;;5105101;27;19946;-57
2022/09/30 03:08:57;;;;;;;;;;;7.50;99.90;;;;;;5124679;27;19916;-56
2022/09/30 03:11:37;;;;;;;;;;;7.50;99.90;;;;;;5105143;27;19926;-56
2022/09/30 03:14:23;;;;;;;;;;;7.50;99.90;;;;;;5105162;27;19953;-56
2022/09/30 03:17:21;;;;;;;;;;;7.50;99.90;;;;;;5104744;27;20349;-55
2022/09/30 03:20:10;;;;;;;;;;;7.40;99.90;;;;;;5104556;27;20323;-56
2022/09/30 03:23:02;;;;;;;;;;;7.30;99.90;;;;;;5102979;27;19912;-56
2022/09/30 03:25:46;;;;;;;;;;;7.30;99.90;;;;;;5125232;27;20381;-56
2022/09/30 03:28:28;;;;;;;;;;;7.10;99.90;;;;;;5105262;27;20373;-55
2022/09/30 03:31:12;;;;;;;;;;;7.00;99.90;;;;;;5104997;27;20540;-55
2022/09/30 03:33:55;;;;;;;;;;;6.80;99.90;;;;;;5125824;27;19912;-56
2022/09/30 03:36:39;;;;;;;;;;;6.60;99.90;;;;;;5105106;27;19926;-56
2022/09/30 03:39:22;;;;;;;;;;;6.50;99.90;;;;;;5123661;27;20479;-56
2022/09/30 03:42:05;;;;;;;;;;;6.40;99.90;;;;;;5126038;27;20428;-55
2022/09/30 03:44:50;;;;;;;;;;;6.30;99.90;;;;;;5092836;27;19930;-55
2022/09/30 03:47:33;;;;;;;;;;;6.20;99.90;;;;;;5125756;27;19920;-56
2022/09/30 03:50:16;;;;;;;;;;;6.10;99.90;;;;;;5103023;27;19915;-56
2022/09/30 03:52:56;;;;;;;;;;;6.00;99.90;;;;;;5125423;27;19919;-56
2022/09/30 03:55:43;;;;;;;;;;;5.90;99.90;;;;;;5095775;27;19931;-56
2022/09/30 03:58:23;;;;;;;;;;;5.70;99.90;;;;;;5103653;27;19938;-56
2022/09/30 04:01:03;;;;;;;;;;;5.60;99.90;;;;;;5123944;27;19928;-56
2022/09/30 04:03:43;;;;;;;;;;;5.50;99.90;;;;;;5124946;27;19912;-54
2022/09/30 04:06:24;;;;;;;;;;;5.40;99.90;;;;;;5172491;27;19978;-56
2022/09/30 04:09:04;;;;;;;;;;;5.30;99.90;;;;;;5102543;27;19924;-56
2022/09/30 04:11:44;;;;;;;;;;;5.40;99.90;;;;;;5125971;27;19915;-56
2022/09/30 04:14:24;;;;;;;;;;;5.40;99.90;;;;;;5095883;27;19916;-56
2022/09/30 04:17:04;;;;;;;;;;;5.40;99.90;;;;;;5104782;27;19926;-56
2022/09/30 04:19:43;;;;;;;;;;;5.40;99.90;;;;;;5124619;27;19926;-56
2022/09/30 04:22:23;;;;;;;;;;;5.50;99.90;;;;;;5104867;27;19912;-56
2022/09/30 04:25:03;;;;;;;;;;;5.70;99.90;;;;;;5137406;27;19919;-56
2022/09/30 04:27:43;;;;;;;;;;;5.80;99.90;;;;;;5094253;27;20149;-56
2022/09/30 04:30:23;;;;;;;;;;;5.90;99.90;;;;;;5121483;27;20426;-56
2022/09/30 04:33:03;;;;;;;;;;;6.10;99.90;;;;;;5123933;27;20351;-56
2022/09/30 04:35:42;;;;;;;;;;;6.20;99.90;;;;;;5122283;27;19912;-56
2022/09/30 04:38:23;;;;;;;;;;;6.30;99.90;;;;;;5123758;27;19925;-56
2022/09/30 04:41:04;;;;;;;;;;;6.30;99.90;;;;;;5103183;27;19927;-56
2022/09/30 04:43:46;;;;;;;;;;;6.30;99.90;;;;;;5120534;27;19977;-56
2022/09/30 04:46:26;;;;;;;;;;;6.20;99.90;;;;;;5124426;27;19911;-56
2022/09/30 04:49:07;;;;;;;;;;;6.30;99.90;;;;;;5101717;27;19916;-56
2022/09/30 04:51:47;;;;;;;;;;;6.20;99.90;;;;;;5124603;27;19919;-56
2022/09/30 04:54:26;;;;;;;;;;;6.10;99.90;;;;;;5115387;27;19912;-56
2022/09/30 04:57:06;;;;;;;;;;;5.90;99.90;;;;;;5124112;27;19918;-56
2022/09/30 04:59:46;;;;;;;;;;;5.80;99.90;;;;;;5103938;27;19934;-56
2022/09/30 05:02:25;;;;;;;;;;;5.70;99.90;;;;;;5077266;28;19916;-56
2022/09/30 05:05:06;;;;;;;;;;;5.70;99.90;;;;;;5123767;27;19919;-56
2022/09/30 05:07:47;;;;;;;;;;;5.60;99.90;;;;;;5103384;27;20146;-56
2022/09/30 05:10:26;;;;;;;;;;;5.70;99.90;;;;;;5123616;27;19911;-56
2022/09/30 05:13:06;;;;;;;;;;;5.70;99.90;;;;;;5124375;27;19912;-56
2022/09/30 05:15:49;;;;;;;;;;;5.70;99.90;;;;;;5124093;27;20207;-56
2022/09/30 05:18:29;;;;;;;;;;;5.80;99.90;;;;;;5103586;27;19916;-56
2022/09/30 05:21:10;;;;;;;;;;;5.90;99.90;;;;;;5083001;28;19912;-56
2022/09/30 05:23:53;;;;;;;;;;;6.00;99.90;;;;;;5143728;27;19918;-56
2022/09/30 05:26:34;;;;;;;;;;;6.20;99.90;;;;;;5124174;27;19926;-56
2022/09/30 05:29:13;;;;;;;;;;;6.30;99.90;;;;;;5123695;27;19911;-56
2022/09/30 05:31:53;;;;;;;;;;;6.40;99.90;;;;;;5103985;27;19946;-56
2022/09/30 05:34:33;;;;;;;;;;;6.50;99.90;;;;;;5092974;27;19912;-54
2022/09/30 05:37:13;;;;;;;;;;;6.60;99.90;;;;;;5103472;27;20423;-56
2022/09/30 05:39:54;;;;;;;;;;;6.60;99.90;;;;;;5107890;27;19916;-56
2022/09/30 05:42:35;;;;;;;;;;;6.70;99.90;;;;;;5082961;28;19926;-56
2022/09/30 05:45:16;;;;;;;;;;;6.70;99.90;;;;;;5103690;27;19912;-56
2022/09/30 05:47:55;;;;;;;;;;;6.70;99.90;;;;;;5124673;27;19912;-56
2022/09/30 05:50:36;;;;;;;;;;;6.70;99.90;;;;;;5121795;27;19912;-54
2022/09/30 05:53:18;;;;;;;;;;;6.80;99.90;;;;;;5104290;27;20086;-55
2022/09/30 05:55:59;;;;;;;;;;;6.80;99.90;;;;;;5125357;27;19912;-56
2022/09/30 05:58:40;;;;;;;;;;;6.70;99.90;;;;;;5124532;27;19918;-56
2022/09/30 06:01:21;;;;;;;;;;;6.80;99.90;;;;;;5105703;27;19915;-56
2022/09/30 06:04:01;;;;;;;;;;;6.90;99.90;;;;;;5125858;27;20332;-56
2022/09/30 06:06:40;;;;;;;;;;;7.00;99.90;;;;;;5104768;27;19912;-55
2022/09/30 06:09:20;;;;;;;;;;;7.10;99.90;;;;;;5107611;27;19926;-56
2022/09/30 06:12:00;;;;;;;;;;;7.00;99.90;;;;;;5124509;27;19912;-54
2022/09/30 06:14:40;;;;;;;;;;;7.10;99.90;;;;;;5092780;27;19954;-56
2022/09/30 06:17:20;;;;;;;;;;;7.10;99.90;;;;;;5125362;27;20327;-56
2022/09/30 06:20:00;;;;;;;;;;;7.10;99.90;;;;;;5124966;27;20301;-56
2022/09/30 06:22:42;;;;;;;;;;;7.20;99.90;;;;;;5093204;28;19912;-56
2022/09/30 06:25:23;;;;;;;;;;;7.20;99.90;;;;;;5125190;27;19990;-56
2022/09/30 06:28:02;;;;;;;;;;;7.20;99.90;;;;;;5104872;27;19926;-56
2022/09/30 06:30:43;;;;;;;;;;;7.20;99.90;;;;;;5124762;27;20273;-56
2022/09/30 06:33:24;;;;;;;;;;;7.20;99.90;;;;;;5102792;27;19926;-56
2022/09/30 06:36:05;;;;;;;;;;;7.40;99.90;;;;;;5125215;27;19912;-56
2022/09/30 06:38:45;;;;;;;;;;;7.40;99.90;;;;;;5125358;27;19918;-56
2022/09/30 06:41:27;;;;;;;;;;;7.40;99.90;;;;;;5125672;27;19912;-56
2022/09/30 06:44:08;;;;;;;;;;;7.30;99.90;;;;;;5098158;27;20567;-55
2022/09/30 06:46:51;;;;;;;;;;;7.50;99.90;;;;;;5104349;27;19930;-55
2022/09/30 06:49:33;;;;;;;;;;;7.50;99.90;;;;;;5124992;27;19916;-56
2022/09/30 06:52:14;;;;;;;;;;;7.60;99.90;;;;;;5141100;27;20323;-55
2022/09/30 06:54:55;;;;;;;;;;;7.70;99.90;;;;;;5125622;27;20281;-55
2022/09/30 06:57:35;;;;;;;;;;;7.90;99.90;;;;;;5125457;27;19912;-55
2022/09/30 07:00:16;;;;;;;;;;;8.00;99.90;;;;;;5104998;27;20544;-55
2022/09/30 07:02:56;;;;;;;;;;;8.10;99.90;;;;;;5126069;27;19911;-55
2022/09/30 07:05:36;;;;;;;;;;;8.20;99.90;;;;;;5105201;27;19950;-55
2022/09/30 07:08:16;;;;;;;;;;;8.30;99.90;;;;;;5125459;27;19912;-55
2022/09/30 07:10:56;;;;;;;;;;;8.30;99.90;;;;;;5125340;27;20315;-55
2022/09/30 07:13:38;;;;;;;;;;;8.40;99.90;;;;;;5102089;27;19946;-55
2022/09/30 07:16:24;;;;;;;;;;;8.70;99.90;;;;;;5125441;27;19912;-52
2022/09/30 07:19:05;;;;;;;;;;;8.80;99.90;;;;;;5124723;27;19911;-54
2022/09/30 07:21:46;;;;;;;;;;;9.00;99.90;;;;;;5104838;27;19934;-55
2022/09/30 07:24:27;;;;;;;;;;;9.10;99.90;;;;;;5095624;27;19954;-55
2022/09/30 07:27:07;;;;;;;;;;;9.20;99.90;;;;;;5098183;27;20429;-55
2022/09/30 07:29:47;;;;;;;;;;;9.40;99.90;;;;;;5102266;27;19926;-55
2022/09/30 07:32:28;;;;;;;;;;;9.40;99.90;;;;;;5103079;27;19926;-55
2022/09/30 07:35:09;;;;;;;;;;;9.60;99.90;;;;;;5123229;27;20794;-54
2022/09/30 07:37:49;;;;;;;;;;;9.90;99.90;;;;;;5097271;27;20135;-53
2022/09/30 07:40:30;;;;;;;;;;;10.10;99.90;;;;;;5106544;27;19920;-54
2022/09/30 07:43:12;;;;;;;;;;;10.40;99.90;;;;;;5123888;27;19915;-54
2022/09/30 07:45:54;;;;;;;;;;;10.60;99.90;;;;;;5124231;27;19915;-55
2022/09/30 07:48:42;;;;;;;;;;;10.70;99.90;;;;;;5123677;27;19911;-54
2022/09/30 07:51:23;;;;;;;;;;;11.00;99.90;;;;;;5160863;27;19914;-54
2022/09/30 07:54:05;;;;;;;;;;;11.10;99.90;;;;;;5124036;27;19926;-54
2022/09/30 07:56:45;;;;;;;;;;;10.90;99.90;;;;;;5103606;27;19946;-55
2022/09/30 07:59:26;;;;;;;;;;;10.60;99.90;;;;;;5102306;27;19912;-55
2022/09/30 08:02:07;;;;;;;;;;;10.40;99.90;;;;;;5124323;27;20373;-55
2022/09/30 08:04:47;;;;;;;;;;;10.50;99.90;;;;;;5124926;27;19912;-54
2022/09/30 08:07:27;;;;;;;;;;;10.50;99.90;;;;;;5124185;27;19916;-54
2022/09/30 08:10:08;;;;;;;;;;;10.60;99.90;;;;;;5103588;27;19926;-55
2022/09/30 08:12:48;;;;;;;;;;;10.70;99.90;;;;;;5124489;27;19912;-55
2022/09/30 08:15:28;;;;;;;;;;;11.00;99.90;;;;;;5103546;27;19926;-55
2022/09/30 08:18:08;;;;;;;;;;;11.10;99.90;;;;;;5083182;28;19912;-55
2022/09/30 08:20:48;;;;;;;;;;;11.00;99.90;;;;;;5124022;27;19912;-54
2022/09/30 08:23:29;;;;;;;;;;;10.90;99.90;;;;;;5103194;27;19916;-55
2022/09/30 08:26:11;;;;;;;;;;;10.60;99.90;;;;;;5103500;27;19912;-54
2022/09/30 08:28:52;;;;;;;;;;;10.40;99.90;;;;;;5103135;27;19927;-54
2022/09/30 08:31:33;;;;;;;;;;;10.30;99.90;;;;;;5124758;27;20408;-54
2022/09/30 08:34:25;;;;;;;;;;;10.30;99.90;;;;;;5123644;27;19926;-55
2022/09/30 08:37:05;;;;;;;;;;;10.30;99.90;;;;;;5103498;27;20335;-55
2022/09/30 08:39:47;;;;;;;;;;;10.20;99.90;;;;;;5127761;27;20312;-54
2022/09/30 08:42:37;;;;;;;;;;;10.20;99.90;;;;;;5104039;27;19912;-55
2022/09/30 08:45:22;;;;;;;;;;;10.30;99.90;;;;;;5160522;27;19948;-54
2022/09/30 08:48:05;;;;;;;;;;;10.40;99.90;;;;;;5124301;27;19916;-54
2022/09/30 08:50:50;;;;;;;;;;;10.60;99.90;;;;;;5123818;27;19915;-54
2022/09/30 08:53:33;;;;;;;;;;;10.70;99.90;;;;;;5123535;27;19986;-54
2022/09/30 08:56:19;;;;;;;;;;;10.90;99.90;;;;;;5175313;22;19923;-57
2022/09/30 08:59:01;;;;;;;;;;;11.00;99.90;;;;;;5103388;27;19912;-57
2022/09/30 09:01:44;;;;;;;;;;;11.20;99.90;;;;;;5102327;27;19946;-57
2022/09/30 09:04:25;;;;;;;;;;;11.40;99.90;;;;;;5121969;27;19911;-57
2022/09/30 09:07:07;;;;;;;;;;;11.50;99.90;;;;;;5105345;27;19971;-55
2022/09/30 09:09:53;;;;;;;;;;;11.70;99.90;;;;;;5109024;27;19946;-57
2022/09/30 09:12:37;;;;;;;;;;;11.90;99.90;;;;;;5126231;27;19912;-56
2022/09/30 09:15:34;;;;;;;;;;;11.90;99.90;;;;;;5095911;27;19930;-56
2022/09/30 09:18:22;;;;;;;;;;;12.00;99.90;;;;;;5104767;27;20259;-57
2022/09/30 09:21:08;;;;;;;;;;;12.00;99.90;;;;;;5104520;27;19926;-57
2022/09/30 09:23:49;;;;;;;;;;;12.00;99.90;;;;;;5105132;27;20280;-57
2022/09/30 09:26:34;;;;;;;;;;;12.10;99.90;;;;;;5162081;27;19915;-57
2022/09/30 09:29:32;;;;;;;;;;;12.20;99.90;;;;;;5104329;27;20426;-57
2022/09/30 09:32:14;;;;;;;;;;;12.20;99.90;;;;;;5105058;27;19913;-57
2022/09/30 09:34:58;;;;;;;;;;;12.30;99.90;;;;;;5104285;27;19926;-57
2022/09/30 09:40:43;;;;;;;;;;;12.60;99.90;;;;;;5103139;27;19912;-57
2022/09/30 09:43:29;;;;;;;;;;;12.70;99.90;;;;;;5085180;28;19913;-56
2022/09/30 09:46:15;;;;;;;;;;;12.90;99.90;;;;;;5084693;28;19912;-57
2022/09/30 09:49:09;;;;;;;;;;;13.00;99.90;;;;;;5104217;27;20374;-57
2022/09/30 09:51:54;;;;;;;;;;;13.00;99.90;;;;;;5085214;28;19920;-56
2022/09/30 09:54:40;;;;;;;;;;;12.80;99.90;;;;;;5084596;28;20270;-57
2022/09/30 09:57:23;;;;;;;;;;;12.80;99.90;;;;;;5125256;27;19912;-57
2022/09/30 10:03:07;;;;;;;;;;;12.90;99.90;;;;;;5105103;27;19912;-56
2022/09/30 10:05:59;;;;;;;;;;;12.90;99.90;;;;;;5091094;27;20122;-56
2022/09/30 10:08:39;;;;;;;;;;;13.00;99.90;;;;;;5104744;27;19916;-56
2022/09/30 10:11:22;;;;;;;;;;;13.10;99.90;;;;;;5125172;27;19912;-57
2022/09/30 10:14:01;;;;;;;;;;;13.00;99.90;;;;;;5083826;28;19913;-57
2022/09/30 10:16:41;;;;;;;;;;;13.00;99.90;;;;;;5083180;28;19912;-56
2022/09/30 10:19:22;;;;;;;;;;;13.10;99.90;;;;;;5082062;28;19912;-55
2022/09/30 10:22:16;;;;;;;;;;;13.10;99.90;;;;;;5104915;27;20412;-57
2022/09/30 10:25:18;;;;;;;;;;;13.30;99.90;;;;;;5105446;27;19920;-56
2022/09/30 10:28:01;;;;;;;;;;;13.70;99.90;;;;;;5105283;27;19977;-56
2022/09/30 10:30:43;;;;;;;;;;;14.30;99.90;;;;;;5124740;27;19911;-58
2022/09/30 10:33:27;;;;;;;;;;;14.90;99.90;;;;;;5124066;27;19912;-57
2022/09/30 10:36:09;;;;;;;;;;;15.40;99.90;;;;;;5104917;27;19912;-58
2022/09/30 10:38:53;;;;;;;;;;;16.00;99.90;;;;;;5103928;27;19933;-56
2022/09/30 10:41:34;;;;;;;;;;;16.40;99.90;;;;;;5105143;27;19945;-57
2022/09/30 10:44:15;;;;;;;;;;;16.60;99.90;;;;;;5124976;27;20392;-57
2022/09/30 10:47:00;;;;;;;;;;;16.90;95.20;;;;;;5105698;27;20124;-58
2022/09/30 10:49:44;;;;;;;;;;;17.10;90.00;;;;;;5104707;27;20430;-56
2022/09/30 10:52:26;;;;;;;;;;;17.30;87.30;;;;;;5104817;27;19955;-57
2022/09/30 10:55:07;;;;;;;;;;;17.80;70.20;;;;;;5097388;27;19916;-57
2022/09/30 10:57:48;;;;;;;;;;;18.20;65.50;;;;;;5105259;27;19912;-58
2022/09/30 11:00:33;;;;;;;;;;;18.40;60.10;;;;;;5103677;27;20397;-57
2022/09/30 11:03:17;;;;;;;;;;;18.10;58.80;;;;;;5105048;27;19926;-57
2022/09/30 11:05:58;;;;;;;;;;;18.10;62.40;;;;;;5104936;27;19927;-57
2022/09/30 11:08:44;;;;;;;;;;;18.40;64.90;;;;;;5125504;27;20195;-57
2022/09/30 11:11:28;;;;;;;;;;;18.70;57.40;;;;;;5125832;27;19912;-54
2022/09/30 11:14:19;;;;;;;;;;;19.00;55.50;;;;;;5105820;27;19926;-57
2022/09/30 11:17:05;;;;;;;;;;;19.20;54.10;;;;;;5105087;27;19946;-57
2022/09/30 11:19:48;;;;;;;;;;;19.00;53.20;;;;;;5124713;27;20319;-57
2022/09/30 11:22:31;;;;;;;;;;;18.80;55.50;;;;;;5125701;27;19916;-57
2022/09/30 11:25:14;;;;;;;;;;;18.90;54.40;;;;;;5096500;27;19973;-57
2022/09/30 11:27:58;;;;;;;;;;;18.60;54.50;;;;;;5105228;27;19950;-58
2022/09/30 11:30:43;;;;;;;;;;;18.60;54.50;;;;;;5103873;27;20426;-57
2022/09/30 11:33:35;;;;;;;;;;;18.60;56.00;;;;;;5124156;27;19919;-57
2022/09/30 11:36:22;;;;;;;;;;;18.50;59.20;;;;;;5084653;28;19912;-57
2022/09/30 11:39:18;;;;;;;;;;;18.40;57.10;;;;;;5104456;27;20217;-58
2022/09/30 11:42:00;;;;;;;;;;;18.40;55.70;;;;;;5105550;27;19912;-57
2022/09/30 11:44:43;;;;;;;;;;;18.50;57.30;;;;;;5100859;27;20431;-58
2022/09/30 11:47:37;;;;;;;;;;;18.30;59.10;;;;;;5104905;27;20427;-57
2022/09/30 11:50:23;;;;;;;;;;;18.20;62.60;;;;;;5104736;27;20213;-57
2022/09/30 11:53:10;;;;;;;;;;;18.10;56.20;;;;;;5104750;27;19912;-57
2022/09/30 11:56:02;;;;;;;;;;;18.30;58.30;;;;;;5105656;27;20331;-57
2022/09/30 11:58:43;;;;;;;;;;;18.20;57.00;;;;;;5103281;27;19961;-56
2022/09/30 12:01:25;;;;;;;;;;;17.80;57.90;;;;;;5104144;27;19926;-56
2022/09/30 12:04:09;;;;;;;;;;;17.60;60.10;;;;;;5103955;27;19912;-57
2022/09/30 12:06:50;;;;;;;;;;;17.50;68.50;;;;;;5103758;27;20215;-57
2022/09/30 12:09:32;;;;;;;;;;;17.40;72.40;;;;;;5123898;27;19924;-57
2022/09/30 12:12:13;;;;;;;;;;;17.20;66.50;;;;;;5104129;27;19926;-57
2022/09/30 12:14:55;;;;;;;;;;;17.00;69.50;;;;;;5098538;27;20309;-57
2022/09/30 12:17:38;;;;;;;;;;;16.90;75.30;;;;;;5103682;27;19926;-57
2022/09/30 12:20:25;;;;;;;;;;;16.80;68.10;;;;;;5103166;27;19924;-57
2022/09/30 12:23:11;;;;;;;;;;;16.60;72.00;;;;;;5124732;27;19920;-57
2022/09/30 12:25:54;;;;;;;;;;;16.50;75.10;;;;;;5110343;27;19912;-55
2022/09/30 12:31:45;;;;;;;;;;;16.00;97.40;;;;;;5124384;27;19912;-57
2022/09/30 12:34:30;;;;;;;;;;;15.80;99.90;;;;;;5120990;27;19912;-57
2022/09/30 12:37:18;;;;;;;;;;;15.70;99.90;;;;;;5103646;27;20078;-56
2022/09/30 12:40:06;;;;;;;;;;;15.70;99.90;;;;;;5124038;27;19916;-56
2022/09/30 12:43:03;;;;;;;;;;;15.80;99.90;;;;;;5124975;27;19913;-57
2022/09/30 12:46:00;;;;;;;;;;;15.90;99.90;;;;;;5123952;27;19927;-57
2022/09/30 12:48:42;;;;;;;;;;;15.90;99.90;;;;;;5103362;27;19949;-57
2022/09/30 12:51:25;;;;;;;;;;;16.00;99.90;;;;;;5083634;28;19913;-57
2022/09/30 12:54:13;;;;;;;;;;;16.10;99.90;;;;;;5125343;27;19915;-57
2022/09/30 12:56:55;;;;;;;;;;;16.10;99.90;;;;;;5103890;27;19915;-57
2022/09/30 12:59:36;;;;;;;;;;;16.20;89.70;;;;;;5103316;27;19939;-57
2022/09/30 13:02:27;;;;;;;;;;;16.50;89.50;;;;;;5104010;27;19912;-57
2022/09/30 13:05:24;;;;;;;;;;;16.80;76.00;;;;;;5124709;27;19915;-56
2022/09/30 13:08:10;;;;;;;;;;;17.00;70.60;;;;;;5103632;27;20319;-57
2022/09/30 13:10:57;;;;;;;;;;;17.30;76.50;;;;;;5144345;27;20566;-56
2022/09/30 13:13:58;;;;;;;;;;;17.70;68.00;;;;;;5125056;27;19933;-57
2022/09/30 13:16:55;;;;;;;;;;;17.70;70.00;;;;;;5143406;27;19912;-57
2022/09/30 13:19:39;;;;;;;;;;;17.90;62.50;;;;;;5103866;27;19916;-55
2022/09/30 13:22:50;;;;;;;;;;;17.70;59.80;;;;;;5122914;27;19923;-56
2022/09/30 13:25:50;;;;;;;;;;;17.50;60.00;;;;;;5112857;27;19916;-55
2022/09/30 13:28:37;;;;;;;;;;;17.50;63.50;;;;;;5123842;27;19916;-55
2022/09/30 13:31:18;;;;;;;;;;;17.60;59.50;;;;;;5147132;27;20671;-56
2022/09/30 13:34:10;;;;;;;;;;;17.50;62.60;;;;;;5104897;27;19950;-55
2022/09/30 13:36:59;;;;;;;;;;;17.60;62.30;;;;;;5104514;27;19934;-56
2022/09/30 13:39:46;;;;;;;;;;;17.50;71.10;;;;;;5087692;27;20427;-56
2022/09/30 13:42:29;;;;;;;;;;;17.50;68.80;;;;;;5100265;27;20319;-57
2022/09/30 13:45:12;;;;;;;;;;;17.40;78.30;;;;;;5117133;27;19916;-55
2022/09/30 13:47:59;;;;;;;;;;;17.40;80.60;;;;;;5125565;27;19916;-55
2022/09/30 13:50:44;;;;;;;;;;;17.50;69.70;;;;;;5104779;27;19954;-55
2022/09/30 13:53:28;;;;;;;;;;;17.50;72.50;;;;;;5105252;27;19969;-56
2022/09/30 13:56:13;;;;;;;;;;;17.20;64.40;;;;;;5104827;27;19912;-54
2022/09/30 13:59:08;;;;;;;;;;;16.90;90.70;;;;;;5103832;27;20165;-56
2022/09/30 14:01:59;;;;;;;;;;;16.80;99.90;;;;;;5105197;27;19927;-56
2022/09/30 14:04:59;;;;;;;;;;;16.60;99.90;;;;;;5100983;27;19927;-56
2022/09/30 14:07:46;;;;;;;;;;;16.60;99.90;;;;;;5125266;27;20276;-56
2022/09/30 14:10:39;;;;;;;;;;;16.80;99.60;;;;;;5104569;27;20323;-56
2022/09/30 14:13:27;;;;;;;;;;;16.80;97.60;;;;;;5104834;27;20202;-56
2022/09/30 14:16:27;;;;;;;;;;;16.90;85.20;;;;;;5104576;27;19912;-56
2022/09/30 14:19:22;;;;;;;;;;;17.10;97.10;;;;;;5102284;27;20324;-56
2022/09/30 14:22:04;;;;;;;;;;;17.00;99.90;;;;;;5126029;27;19916;-56
2022/09/30 14:24:43;;;;;;;;;;;16.80;94.00;;;;;;5120873;27;19912;-56
2022/09/30 14:27:30;;;;;;;;;;;16.70;99.90;;;;;;5104714;27;19961;-56
2022/09/30 14:30:13;;;;;;;;;;;16.60;99.90;;;;;;5104598;27;19926;-56
2022/09/30 14:32:55;;;;;;;;;;;16.60;99.90;;;;;;5126035;27;19912;-56
2022/09/30 14:35:39;;;;;;;;;;;16.60;99.90;;;;;;5104712;27;19912;-56
2022/09/30 14:38:24;;;;;;;;;;;16.60;99.90;;;;;;5104962;27;19926;-56
2022/09/30 14:41:06;;;;;;;;;;;16.60;99.90;;;;;;5125027;27;19912;-56
2022/09/30 14:43:49;;;;;;;;;;;16.60;99.90;;;;;;5104993;27;20136;-56
2022/09/30 14:46:33;;;;;;;;;;;16.60;99.90;;;;;;5104824;27;19926;-55
2022/09/30 14:49:15;;;;;;;;;;;16.80;99.90;;;;;;5125195;27;19916;-56
2022/09/30 14:51:57;;;;;;;;;;;17.00;99.90;;;;;;5105566;27;19954;-56
2022/09/30 14:54:46;;;;;;;;;;;17.10;99.90;;;;;;5102238;27;19946;-56
2022/09/30 14:57:26;;;;;;;;;;;17.00;99.90;;;;;;5105208;27;19930;-56
2022/09/30 15:00:36;;;;;;;;;;;16.90;99.90;;;;;;5105282;27;19926;-57
2022/09/30 15:03:16;;;;;;;;;;;16.70;99.90;;;;;;5105630;27;19945;-56
2022/09/30 15:05:56;;;;;;;;;;;16.60;99.90;;;;;;5104992;27;19930;-57
2022/09/30 15:08:36;;;;;;;;;;;16.60;99.90;;;;;;5105525;27;19949;-55
2022/09/30 15:11:20;;;;;;;;;;;16.50;99.90;;;;;;5090438;27;19934;-57
2022/09/30 15:14:09;;;;;;;;;;;16.40;99.90;;;;;;5105917;27;19946;-57
2022/09/30 15:16:50;;;;;;;;;;;16.10;99.90;;;;;;5105409;27;20160;-56
2022/09/30 15:19:33;;;;;;;;;;;15.90;99.90;;;;;;5102976;27;19926;-53
2022/09/30 15:22:14;;;;;;;;;;;15.80;99.90;;;;;;5085084;28;19927;-56
2022/09/30 15:24:54;;;;;;;;;;;15.80;99.90;;;;;;5099442;27;19946;-55
2022/09/30 15:27:35;;;;;;;;;;;16.00;99.90;;;;;;5105442;27;20319;-56
2022/09/30 15:30:25;;;;;;;;;;;16.10;99.90;;;;;;5105409;27;19926;-55
2022/09/30 15:33:14;;;;;;;;;;;16.20;99.90;;;;;;5105300;27;19961;-56
2022/09/30 15:36:02;;;;;;;;;;;16.20;99.90;;;;;;5105419;27;20161;-56
2022/09/30 15:38:46;;;;;;;;;;;16.10;99.90;;;;;;5105158;27;19927;-56
2022/09/30 15:41:27;;;;;;;;;;;15.90;99.90;;;;;;5104902;27;19945;-55
2022/09/30 15:44:15;;;;;;;;;;;15.60;99.90;;;;;;5106075;27;20336;-56
2022/09/30 15:47:02;;;;;;;;;;;15.30;99.90;;;;;;5105637;27;20423;-56
2022/09/30 15:49:48;;;;;;;;;;;15.00;99.90;;;;;;5104813;27;20426;-56
2022/09/30 15:52:32;;;;;;;;;;;14.90;99.90;;;;;;5105168;27;19959;-56
2022/09/30 15:55:28;;;;;;;;;;;14.70;99.90;;;;;;5105597;27;19954;-54
2022/09/30 15:58:31;;;;;;;;;;;14.60;99.90;;;;;;5125796;27;19918;-56
2022/09/30 16:01:16;;;;;;;;;;;14.60;99.90;;;;;;5105073;27;19934;-56
2022/09/30 16:03:57;;;;;;;;;;;14.60;99.90;;;;;;5106145;27;19946;-54
2022/09/30 16:06:42;;;;;;;;;;;14.60;99.90;;;;;;5124342;27;19922;-56
2022/09/30 16:09:27;;;;;;;;;;;14.50;99.90;;;;;;5108361;27;20624;-55